createdAt,value
2023-05-09T00:00:15.388Z,497.00
2023-05-09T00:01:15.411Z,496.00
2023-05-09T00:02:15.449Z,496.00
2023-05-09T00:03:15.473Z,497.00
2023-05-09T00:04:15.476Z,496.00
2023-05-09T00:05:15.824Z,496.00
2023-05-09T00:06:15.630Z,496.00
2023-05-09T00:07:15.657Z,495.00
2023-05-09T00:08:15.566Z,497.00
2023-05-09T00:09:15.564Z,498.00
2023-05-09T00:10:15.632Z,499.00
2023-05-09T00:11:15.621Z,498.00
2023-05-09T00:12:15.632Z,500.00
2023-05-09T00:13:15.674Z,497.00
2023-05-09T00:14:15.663Z,497.00
2023-05-09T00:15:15.816Z,495.00
2023-05-09T00:16:15.795Z,493.00
2023-05-09T00:17:15.792Z,494.00
2023-05-09T00:18:15.762Z,494.00
2023-05-09T00:19:15.775Z,494.00
2023-05-09T00:20:15.802Z,496.00
2023-05-09T00:21:15.803Z,496.00
2023-05-09T00:22:15.808Z,497.00
2023-05-09T00:23:15.907Z,498.00
2023-05-09T00:24:15.829Z,497.00
2023-05-09T00:25:16.099Z,496.00
2023-05-09T00:26:15.816Z,497.00
2023-05-09T00:27:15.853Z,496.00
2023-05-09T00:28:15.866Z,496.00
2023-05-09T00:29:15.872Z,495.00
2023-05-09T00:30:15.940Z,494.00
2023-05-09T00:31:15.901Z,491.00
2023-05-09T00:32:15.962Z,491.00
2023-05-09T00:33:15.942Z,493.00
2023-05-09T00:34:15.996Z,493.00
2023-05-09T00:35:16.229Z,495.00
2023-05-09T00:36:15.998Z,494.00
2023-05-09T00:37:16.037Z,493.00
2023-05-09T00:38:16.029Z,493.00
2023-05-09T00:39:16.133Z,491.00
2023-05-09T00:40:16.109Z,489.00
2023-05-09T00:41:16.109Z,490.00
2023-05-09T00:42:16.094Z,488.00
2023-05-09T00:43:16.104Z,489.00
2023-05-09T00:44:16.117Z,490.00
2023-05-09T00:45:16.220Z,490.00
2023-05-09T00:46:16.220Z,491.00
2023-05-09T00:47:16.221Z,487.00
2023-05-09T00:48:16.220Z,484.00
2023-05-09T00:49:16.263Z,483.00
2023-05-09T00:50:16.257Z,484.00
2023-05-09T00:51:16.268Z,485.00
2023-05-09T00:52:16.307Z,486.00
2023-05-09T00:53:16.350Z,486.00
2023-05-09T00:54:16.349Z,485.00
2023-05-09T00:55:16.667Z,484.00
2023-05-09T00:56:16.391Z,487.00
2023-05-09T00:57:16.417Z,488.00
2023-05-09T00:58:16.453Z,485.00
2023-05-09T00:59:17.587Z,485.00
2023-05-09T01:00:16.474Z,484.00
2023-05-09T01:01:16.548Z,482.00
2023-05-09T01:02:16.545Z,482.00
2023-05-09T01:03:16.612Z,481.00
2023-05-09T01:04:16.584Z,481.00
2023-05-09T01:05:16.789Z,481.00
2023-05-09T01:06:16.657Z,480.00
2023-05-09T01:07:16.649Z,480.00
2023-05-09T01:08:16.641Z,481.00
2023-05-09T01:09:16.662Z,481.00
2023-05-09T01:10:16.714Z,479.00
2023-05-09T01:11:16.809Z,482.00
2023-05-09T01:12:16.738Z,483.00
2023-05-09T01:13:16.783Z,485.00
2023-05-09T01:14:16.789Z,487.00
2023-05-09T01:15:16.915Z,487.00
2023-05-09T01:16:16.877Z,488.00
2023-05-09T01:17:16.858Z,486.00
2023-05-09T01:18:16.885Z,488.00
2023-05-09T01:19:16.911Z,489.00
2023-05-09T01:20:16.947Z,488.00
2023-05-09T01:21:16.921Z,489.00
2023-05-09T01:22:16.948Z,489.00
2023-05-09T01:23:16.988Z,490.00
2023-05-09T01:24:16.986Z,488.00
2023-05-09T01:25:17.084Z,486.00
2023-05-09T01:26:17.014Z,485.00
2023-05-09T01:27:17.103Z,485.00
2023-05-09T01:28:17.033Z,486.00
2023-05-09T01:29:17.078Z,487.00
2023-05-09T01:30:17.111Z,485.00
2023-05-09T01:31:17.162Z,484.00
2023-05-09T01:32:17.114Z,486.00
2023-05-09T01:33:17.139Z,488.00
2023-05-09T01:34:17.150Z,488.00
2023-05-09T01:35:17.240Z,489.00
2023-05-09T01:36:17.237Z,485.00
2023-05-09T01:37:17.216Z,483.00
2023-05-09T01:38:17.242Z,482.00
2023-05-09T01:39:17.262Z,482.00
2023-05-09T01:40:17.297Z,484.00
2023-05-09T01:41:17.313Z,487.00
2023-05-09T01:42:17.331Z,486.00
2023-05-09T01:43:17.438Z,487.00
2023-05-09T01:44:17.392Z,485.00
2023-05-09T01:45:17.547Z,486.00
2023-05-09T01:46:17.468Z,485.00
2023-05-09T01:47:17.479Z,485.00
2023-05-09T01:48:17.443Z,487.00
2023-05-09T01:49:17.468Z,488.00
2023-05-09T01:50:17.517Z,487.00
2023-05-09T01:51:17.551Z,485.00
2023-05-09T01:52:17.564Z,484.00
2023-05-09T01:53:17.578Z,485.00
2023-05-09T01:54:17.629Z,485.00
2023-05-09T01:55:17.611Z,488.00
2023-05-09T01:56:17.673Z,490.00
2023-05-09T01:57:17.671Z,489.00
2023-05-09T01:58:17.701Z,488.00
2023-05-09T01:59:17.825Z,489.00
2023-05-09T02:00:17.741Z,489.00
2023-05-09T02:01:17.810Z,492.00
2023-05-09T02:02:17.804Z,492.00
2023-05-09T02:03:17.879Z,492.00
2023-05-09T02:04:17.826Z,491.00
2023-05-09T02:05:17.958Z,494.00
2023-05-09T02:06:17.825Z,493.00
2023-05-09T02:07:17.869Z,489.00
2023-05-09T02:08:17.896Z,488.00
2023-05-09T02:09:17.933Z,487.00
2023-05-09T02:10:17.953Z,490.00
2023-05-09T02:11:17.969Z,493.00
2023-05-09T02:12:17.989Z,494.00
2023-05-09T02:13:18.075Z,493.00
2023-05-09T02:14:17.998Z,493.00
2023-05-09T02:15:18.100Z,493.00
2023-05-09T02:16:19.988Z,494.00
2023-05-09T02:17:18.182Z,494.00
2023-05-09T02:18:18.179Z,494.00
2023-05-09T02:19:18.191Z,493.00
2023-05-09T02:20:18.235Z,493.00
2023-05-09T02:21:18.258Z,492.00
2023-05-09T02:22:18.342Z,492.00
2023-05-09T02:23:18.260Z,489.00
2023-05-09T02:24:18.291Z,489.00
2023-05-09T02:25:18.301Z,486.00
2023-05-09T02:26:18.341Z,485.00
2023-05-09T02:27:18.358Z,484.00
2023-05-09T02:28:18.360Z,484.00
2023-05-09T02:29:18.417Z,484.00
2023-05-09T02:30:18.437Z,481.00
2023-05-09T02:31:18.538Z,483.00
2023-05-09T02:32:18.491Z,484.00
2023-05-09T02:33:18.503Z,484.00
2023-05-09T02:34:18.500Z,486.00
2023-05-09T02:35:18.549Z,486.00
2023-05-09T02:36:18.552Z,484.00
2023-05-09T02:37:18.575Z,480.00
2023-05-09T02:38:18.597Z,480.00
2023-05-09T02:39:18.629Z,478.00
2023-05-09T02:40:18.649Z,479.00
2023-05-09T02:41:18.661Z,479.00
2023-05-09T02:42:18.686Z,483.00
2023-05-09T02:43:18.705Z,482.00
2023-05-09T02:44:18.722Z,479.00
2023-05-09T02:45:18.760Z,480.00
2023-05-09T02:46:18.783Z,480.00
2023-05-09T02:47:18.857Z,481.00
2023-05-09T02:48:18.816Z,482.00
2023-05-09T02:49:31.356Z,481.00
2023-05-09T02:50:19.838Z,482.00
2023-05-09T02:51:18.804Z,484.00
2023-05-09T02:52:18.801Z,487.00
2023-05-09T02:53:18.810Z,484.00
2023-05-09T02:54:18.810Z,485.00
2023-05-09T02:55:18.776Z,484.00
2023-05-09T02:56:18.818Z,485.00
2023-05-09T02:57:18.772Z,485.00
2023-05-09T02:58:18.757Z,485.00
2023-05-09T02:59:19.446Z,483.00
2023-05-09T03:00:18.723Z,481.00
2023-05-09T03:01:18.760Z,479.00
2023-05-09T03:02:18.748Z,479.00
2023-05-09T03:03:18.951Z,480.00
2023-05-09T03:04:18.719Z,477.00
2023-05-09T03:05:18.709Z,474.00
2023-05-09T03:06:18.689Z,473.00
2023-05-09T03:07:18.706Z,476.00
2023-05-09T03:08:18.673Z,475.00
2023-05-09T03:09:18.684Z,475.00
2023-05-09T03:10:18.690Z,474.00
2023-05-09T03:11:18.711Z,475.00
2023-05-09T03:12:18.674Z,478.00
2023-05-09T03:13:18.696Z,479.00
2023-05-09T03:14:18.661Z,479.00
2023-05-09T03:15:18.723Z,479.00
2023-05-09T03:16:18.789Z,480.00
2023-05-09T03:17:18.757Z,481.00
2023-05-09T03:18:18.782Z,481.00
2023-05-09T03:19:18.878Z,481.00
2023-05-09T03:20:18.862Z,478.00
2023-05-09T03:21:18.847Z,479.00
2023-05-09T03:22:18.853Z,478.00
2023-05-09T03:23:18.882Z,477.00
2023-05-09T03:24:18.889Z,476.00
2023-05-09T03:25:18.927Z,474.00
2023-05-09T03:26:18.940Z,475.00
2023-05-09T03:27:18.978Z,476.00
2023-05-09T03:28:18.964Z,475.00
2023-05-09T03:29:18.997Z,474.00
2023-05-09T03:30:19.002Z,477.00
2023-05-09T03:31:19.056Z,476.00
2023-05-09T03:32:19.095Z,474.00
2023-05-09T03:33:19.098Z,476.00
2023-05-09T03:34:19.112Z,476.00
2023-05-09T03:35:19.184Z,478.00
2023-05-09T03:36:19.173Z,479.00
2023-05-09T03:37:19.194Z,480.00
2023-05-09T03:38:19.208Z,480.00
2023-05-09T03:39:19.230Z,480.00
2023-05-09T03:40:19.295Z,480.00
2023-05-09T03:41:19.274Z,480.00
2023-05-09T03:42:19.257Z,481.00
2023-05-09T03:43:19.308Z,480.00
2023-05-09T03:44:19.336Z,478.00
2023-05-09T03:45:19.345Z,475.00
2023-05-09T03:46:19.452Z,473.00
2023-05-09T03:47:19.422Z,472.00
2023-05-09T03:48:19.419Z,471.00
2023-05-09T03:49:19.451Z,473.00
2023-05-09T03:50:19.479Z,474.00
2023-05-09T03:51:19.584Z,473.00
2023-05-09T03:52:19.529Z,475.00
2023-05-09T03:53:19.544Z,477.00
2023-05-09T03:54:19.577Z,478.00
2023-05-09T03:55:19.613Z,477.00
2023-05-09T03:56:19.603Z,475.00
2023-05-09T03:57:19.650Z,475.00
2023-05-09T03:58:19.688Z,474.00
2023-05-09T03:59:19.713Z,474.00
2023-05-09T04:00:19.727Z,475.00
2023-05-09T04:01:19.714Z,476.00
2023-05-09T04:02:19.761Z,476.00
2023-05-09T04:03:19.862Z,477.00
2023-05-09T04:04:19.805Z,476.00
2023-05-09T04:05:19.857Z,478.00
2023-05-09T04:06:19.834Z,474.00
2023-05-09T04:07:19.954Z,473.00
2023-05-09T04:08:19.918Z,473.00
2023-05-09T04:09:19.940Z,472.00
2023-05-09T04:10:19.982Z,470.00
2023-05-09T04:11:19.981Z,472.00
2023-05-09T04:12:19.993Z,472.00
2023-05-09T04:13:20.054Z,473.00
2023-05-09T04:14:20.054Z,473.00
2023-05-09T04:15:20.080Z,473.00
2023-05-09T04:16:20.196Z,473.00
2023-05-09T04:17:20.230Z,472.00
2023-05-09T04:18:20.128Z,472.00
2023-05-09T04:19:20.205Z,469.00
2023-05-09T04:20:20.244Z,468.00
2023-05-09T04:21:20.216Z,467.00
2023-05-09T04:22:20.282Z,468.00
2023-05-09T04:23:20.381Z,469.00
2023-05-09T04:24:20.323Z,471.00
2023-05-09T04:25:20.326Z,471.00
2023-05-09T04:26:20.363Z,471.00
2023-05-09T04:27:20.360Z,471.00
2023-05-09T04:28:20.502Z,470.00
2023-05-09T04:29:20.424Z,470.00
2023-05-09T04:30:20.444Z,470.00
2023-05-09T04:31:20.558Z,471.00
2023-05-09T04:32:20.533Z,472.00
2023-05-09T04:33:20.559Z,474.00
2023-05-09T04:34:20.558Z,469.00
2023-05-09T04:35:21.106Z,471.00
2023-05-09T04:36:20.613Z,467.00
2023-05-09T04:37:20.622Z,468.00
2023-05-09T04:38:20.638Z,467.00
2023-05-09T04:39:20.754Z,467.00
2023-05-09T04:40:20.687Z,467.00
2023-05-09T04:41:20.730Z,467.00
2023-05-09T04:42:20.755Z,468.00
2023-05-09T04:43:20.781Z,465.00
2023-05-09T04:44:20.820Z,466.00
2023-05-09T04:45:20.823Z,466.00
2023-05-09T04:46:21.796Z,466.00
2023-05-09T04:47:20.877Z,466.00
2023-05-09T04:48:20.898Z,467.00
2023-05-09T04:49:20.923Z,468.00
2023-05-09T04:50:20.945Z,470.00
2023-05-09T04:51:20.982Z,470.00
2023-05-09T04:52:21.031Z,471.00
2023-05-09T04:53:21.039Z,469.00
2023-05-09T04:54:21.035Z,470.00
2023-05-09T04:55:21.139Z,471.00
2023-05-09T04:56:21.114Z,471.00
2023-05-09T04:57:21.112Z,472.00
2023-05-09T04:58:21.169Z,475.00
2023-05-09T04:59:21.146Z,476.00
2023-05-09T05:00:21.198Z,476.00
2023-05-09T05:01:21.321Z,475.00
2023-05-09T05:02:21.341Z,474.00
2023-05-09T05:03:21.267Z,473.00
2023-05-09T05:04:21.355Z,472.00
2023-05-09T05:05:24.719Z,473.00
2023-05-09T05:06:21.314Z,475.00
2023-05-09T05:07:21.313Z,472.00
2023-05-09T05:08:21.314Z,472.00
2023-05-09T05:09:21.284Z,472.00
2023-05-09T05:10:21.335Z,472.00
2023-05-09T05:11:21.366Z,473.00
2023-05-09T05:12:21.251Z,471.00
2023-05-09T05:13:21.340Z,470.00
2023-05-09T05:14:21.253Z,470.00
2023-05-09T05:15:21.218Z,468.00
2023-05-09T05:16:21.267Z,467.00
2023-05-09T05:17:21.254Z,470.00
2023-05-09T05:18:21.239Z,473.00
2023-05-09T05:19:21.185Z,476.00
2023-05-09T05:20:21.285Z,478.00
2023-05-09T05:21:21.198Z,479.00
2023-05-09T05:22:21.186Z,479.00
2023-05-09T05:23:21.145Z,480.00
2023-05-09T05:24:21.179Z,477.00
2023-05-09T05:25:21.180Z,477.00
2023-05-09T05:26:21.189Z,475.00
2023-05-09T05:27:21.230Z,484.00
2023-05-09T05:28:21.143Z,488.00
2023-05-09T05:29:21.119Z,492.00
2023-05-09T05:30:21.185Z,493.00
2023-05-09T05:31:21.227Z,494.00
2023-05-09T05:32:21.176Z,496.00
2023-05-09T05:33:21.089Z,496.00
2023-05-09T05:34:21.106Z,490.00
2023-05-09T05:35:21.097Z,492.00
2023-05-09T05:36:21.114Z,492.00
2023-05-09T05:37:21.507Z,494.00
2023-05-09T05:38:21.107Z,498.00
2023-05-09T05:39:21.083Z,509.00
2023-05-09T05:40:21.131Z,515.00
2023-05-09T05:41:21.089Z,523.00
2023-05-09T05:42:21.504Z,545.00
2023-05-09T05:43:21.187Z,575.00
2023-05-09T05:44:21.067Z,618.00
2023-05-09T05:45:21.098Z,737.00
2023-05-09T05:46:28.012Z,741.00
2023-05-09T05:47:21.005Z,764.00
2023-05-09T05:48:21.035Z,792.00
2023-05-09T05:49:21.008Z,824.00
2023-05-09T05:50:21.001Z,857.00
2023-05-09T05:51:20.985Z,865.00
2023-05-09T05:52:20.994Z,869.00
2023-05-09T05:53:21.001Z,869.00
2023-05-09T05:54:20.995Z,881.00
2023-05-09T05:55:21.032Z,802.00
2023-05-09T05:56:20.970Z,853.00
2023-05-09T05:57:20.972Z,886.00
2023-05-09T05:58:20.955Z,891.00
2023-05-09T05:59:21.085Z,833.00
2023-05-09T06:00:20.928Z,953.00
2023-05-09T06:01:20.953Z,746.00
2023-05-09T06:02:20.982Z,873.00
2023-05-09T06:03:21.021Z,896.00
2023-05-09T06:04:21.010Z,850.00
2023-05-09T06:05:20.922Z,962.00
2023-05-09T06:06:21.038Z,951.00
2023-05-09T06:07:21.070Z,923.00
2023-05-09T06:08:20.883Z,897.00
2023-05-09T06:09:20.899Z,915.00
2023-05-09T06:10:20.926Z,922.00
2023-05-09T06:11:20.865Z,985.00
2023-05-09T06:12:20.840Z,987.00
2023-05-09T06:13:21.000Z,992.00
2023-05-09T06:14:20.832Z,928.00
2023-05-09T06:15:20.913Z,864.00
2023-05-09T06:16:20.876Z,906.00
2023-05-09T06:17:20.902Z,969.00
2023-05-09T06:18:20.827Z,965.00
2023-05-09T06:19:20.792Z,959.00
2023-05-09T06:20:20.762Z,963.00
2023-05-09T06:21:20.779Z,967.00
2023-05-09T06:22:20.787Z,873.00
2023-05-09T06:23:20.795Z,917.00
2023-05-09T06:24:34.547Z,904.00
2023-05-09T06:25:21.786Z,804.00
2023-05-09T06:26:20.926Z,813.00
2023-05-09T06:27:21.094Z,863.00
2023-05-09T06:28:20.777Z,871.00
2023-05-09T06:29:20.781Z,894.00
2023-05-09T06:31:21.862Z,943.00
2023-05-09T06:32:20.750Z,936.00
2023-05-09T06:33:20.756Z,940.00
2023-05-09T06:34:20.714Z,929.00
2023-05-09T06:35:20.691Z,945.00
2023-05-09T06:36:20.719Z,957.00
2023-05-09T06:37:20.740Z,941.00
2023-05-09T06:38:20.690Z,880.00
2023-05-09T06:39:20.691Z,901.00
2023-05-09T06:40:20.651Z,837.00
2023-05-09T06:41:20.668Z,887.00
2023-05-09T06:42:20.680Z,959.00
2023-05-09T06:43:20.658Z,968.00
2023-05-09T06:44:20.697Z,968.00
2023-05-09T06:45:20.778Z,888.00
2023-05-09T06:46:20.720Z,968.00
2023-05-09T06:47:20.648Z,979.00
2023-05-09T06:48:21.597Z,989.00
2023-05-09T06:49:20.613Z,1002.00
2023-05-09T06:50:20.632Z,1032.00
2023-05-09T06:51:20.629Z,1065.00
2023-05-09T06:52:20.571Z,1073.00
2023-05-09T06:53:20.593Z,1077.00
2023-05-09T06:54:20.629Z,1091.00
2023-05-09T06:55:20.554Z,1095.00
2023-05-09T06:56:20.580Z,1098.00
2023-05-09T06:57:20.524Z,1105.00
2023-05-09T06:58:20.541Z,1031.00
2023-05-09T06:59:20.534Z,1112.00
2023-05-09T07:00:20.568Z,1116.00
2023-05-09T07:01:20.570Z,1116.00
2023-05-09T07:02:20.555Z,1126.00
2023-05-09T07:03:20.573Z,1127.00
2023-05-09T07:04:20.472Z,1120.00
2023-05-09T07:05:20.550Z,1118.00
2023-05-09T07:06:20.491Z,1110.00
2023-05-09T07:07:20.464Z,1107.00
2023-05-09T07:08:20.597Z,1118.00
2023-05-09T07:09:20.509Z,1117.00
2023-05-09T07:10:20.457Z,1116.00
2023-05-09T07:11:20.477Z,1085.00
2023-05-09T07:12:20.445Z,1088.00
2023-05-09T07:13:20.763Z,1080.00
2023-05-09T07:14:20.439Z,1086.00
2023-05-09T07:15:29.100Z,1118.00
2023-05-09T07:16:21.455Z,1146.00
2023-05-09T07:17:23.684Z,1156.00
2023-05-09T07:18:20.415Z,1167.00
2023-05-09T07:19:20.481Z,1173.00
2023-05-09T07:20:20.371Z,1177.00
2023-05-09T07:21:20.379Z,1158.00
2023-05-09T07:22:20.412Z,1161.00
2023-05-09T07:23:20.387Z,1165.00
2023-05-09T07:24:20.346Z,1117.00
2023-05-09T07:25:20.366Z,1128.00
2023-05-09T07:26:20.321Z,1136.00
2023-05-09T07:27:20.448Z,1140.00
2023-05-09T07:28:20.624Z,1153.00
2023-05-09T07:29:20.326Z,1168.00
2023-05-09T07:30:20.361Z,1074.00
2023-05-09T07:31:20.365Z,1121.00
2023-05-09T07:32:20.308Z,1144.00
2023-05-09T07:33:20.341Z,979.00
2023-05-09T07:34:20.312Z,840.00
2023-05-09T07:35:20.341Z,809.00
2023-05-09T07:36:20.332Z,805.00
2023-05-09T07:37:20.290Z,830.00
2023-05-09T07:38:20.284Z,822.00
2023-05-09T07:39:20.261Z,715.00
2023-05-09T07:40:20.256Z,837.00
2023-05-09T07:41:20.247Z,834.00
2023-05-09T07:42:20.254Z,848.00
2023-05-09T07:43:20.587Z,745.00
2023-05-09T07:44:20.233Z,776.00
2023-05-09T07:45:22.091Z,802.00
2023-05-09T07:46:20.315Z,770.00
2023-05-09T07:47:20.217Z,782.00
2023-05-09T07:48:20.226Z,823.00
2023-05-09T07:49:20.209Z,764.00
2023-05-09T07:50:20.197Z,751.00
2023-05-09T07:51:20.254Z,657.00
2023-05-09T07:52:20.179Z,659.00
2023-05-09T07:53:20.150Z,695.00
2023-05-09T07:54:20.151Z,722.00
2023-05-09T07:55:20.133Z,701.00
2023-05-09T07:56:20.098Z,697.00
2023-05-09T07:57:20.125Z,694.00
2023-05-09T07:58:20.120Z,696.00
2023-05-09T07:59:20.602Z,724.00
2023-05-09T08:00:20.123Z,717.00
2023-05-09T08:01:20.072Z,712.00
2023-05-09T08:02:20.095Z,727.00
2023-05-09T08:03:20.168Z,739.00
2023-05-09T08:04:20.127Z,754.00
2023-05-09T08:05:20.057Z,746.00
2023-05-09T08:06:20.079Z,698.00
2023-05-09T08:07:20.141Z,689.00
2023-05-09T08:08:20.056Z,657.00
2023-05-09T08:09:20.031Z,658.00
2023-05-09T08:10:20.031Z,662.00
2023-05-09T08:11:20.046Z,784.00
2023-05-09T08:12:20.023Z,771.00
2023-05-09T08:13:20.051Z,802.00
2023-05-09T08:14:19.982Z,799.00
2023-05-09T08:15:19.984Z,785.00
2023-05-09T08:16:20.017Z,799.00
2023-05-09T08:17:20.045Z,796.00
2023-05-09T08:18:20.034Z,800.00
2023-05-09T08:19:20.097Z,779.00
2023-05-09T08:20:19.969Z,827.00
2023-05-09T08:21:22.146Z,863.00
2023-05-09T08:22:19.946Z,894.00
2023-05-09T08:23:20.035Z,905.00
2023-05-09T08:24:20.102Z,908.00
2023-05-09T08:25:20.035Z,912.00
2023-05-09T08:26:19.927Z,915.00
2023-05-09T08:27:19.973Z,931.00
2023-05-09T08:28:22.520Z,953.00
2023-05-09T08:29:20.166Z,975.00
2023-05-09T08:30:20.163Z,989.00
2023-05-09T08:31:20.206Z,996.00
2023-05-09T08:32:20.254Z,1009.00
2023-05-09T08:33:20.267Z,1023.00
2023-05-09T08:34:20.629Z,1029.00
2023-05-09T08:35:20.338Z,1028.00
2023-05-09T08:36:20.440Z,1024.00
2023-05-09T08:37:20.404Z,1019.00
2023-05-09T08:38:20.509Z,1006.00
2023-05-09T08:39:20.562Z,988.00
2023-05-09T08:40:20.488Z,977.00
2023-05-09T08:41:20.529Z,967.00
2023-05-09T08:42:20.582Z,960.00
2023-05-09T08:43:20.585Z,960.00
2023-05-09T08:44:20.610Z,957.00
2023-05-09T08:45:20.634Z,954.00
2023-05-09T08:46:20.794Z,952.00
2023-05-09T08:47:20.759Z,953.00
2023-05-09T08:48:20.754Z,947.00
2023-05-09T08:49:20.760Z,942.00
2023-05-09T08:50:20.879Z,939.00
2023-05-09T08:51:20.871Z,975.00
2023-05-09T08:52:20.906Z,987.00
2023-05-09T08:53:20.931Z,998.00
2023-05-09T08:54:22.860Z,992.00
2023-05-09T08:55:21.148Z,982.00
2023-05-09T08:56:21.040Z,984.00
2023-05-09T08:57:21.076Z,986.00
2023-05-09T08:58:21.144Z,993.00
2023-05-09T08:59:21.163Z,987.00
2023-05-09T09:00:21.470Z,979.00
2023-05-09T09:01:21.238Z,980.00
2023-05-09T09:02:21.267Z,987.00
2023-05-09T09:03:21.281Z,965.00
2023-05-09T09:04:21.664Z,919.00
2023-05-09T09:05:40.145Z,930.00
2023-05-09T09:06:22.339Z,931.00
2023-05-09T09:07:21.348Z,947.00
2023-05-09T09:08:21.348Z,1024.00
2023-05-09T09:09:21.736Z,1022.00
2023-05-09T09:10:21.327Z,1031.00
2023-05-09T09:11:21.395Z,1013.00
2023-05-09T09:12:21.317Z,926.00
2023-05-09T09:13:21.306Z,934.00
2023-05-09T09:14:21.294Z,987.00
2023-05-09T09:15:21.290Z,988.00
2023-05-09T09:16:21.313Z,892.00
2023-05-09T09:17:21.261Z,900.00
2023-05-09T09:18:21.279Z,898.00
2023-05-09T09:19:21.344Z,901.00
2023-05-09T09:20:21.256Z,878.00
2023-05-09T09:21:21.315Z,844.00
2023-05-09T09:22:21.464Z,881.00
2023-05-09T09:23:21.212Z,885.00
2023-05-09T09:24:21.211Z,881.00
2023-05-09T09:25:21.417Z,880.00
2023-05-09T09:26:21.200Z,867.00
2023-05-09T09:27:21.274Z,809.00
2023-05-09T09:28:21.200Z,655.00
2023-05-09T09:29:21.190Z,788.00
2023-05-09T09:30:21.208Z,789.00
2023-05-09T09:31:21.284Z,681.00
2023-05-09T09:32:21.251Z,747.00
2023-05-09T09:33:21.181Z,765.00
2023-05-09T09:34:21.141Z,727.00
2023-05-09T09:35:21.185Z,808.00
2023-05-09T09:36:21.124Z,815.00
2023-05-09T09:37:21.137Z,809.00
2023-05-09T09:38:21.149Z,803.00
2023-05-09T09:39:21.118Z,807.00
2023-05-09T09:40:21.086Z,813.00
2023-05-09T09:41:21.127Z,697.00
2023-05-09T09:42:21.088Z,611.00
2023-05-09T09:43:21.199Z,578.00
2023-05-09T09:44:21.160Z,575.00
2023-05-09T09:45:21.285Z,586.00
2023-05-09T09:46:21.259Z,593.00
2023-05-09T09:47:21.307Z,594.00
2023-05-09T09:48:21.327Z,608.00
2023-05-09T09:49:21.341Z,611.00
2023-05-09T09:50:21.709Z,608.00
2023-05-09T09:51:21.460Z,590.00
2023-05-09T09:52:21.530Z,559.00
2023-05-09T09:53:21.490Z,559.00
2023-05-09T09:54:21.587Z,548.00
2023-05-09T09:55:21.588Z,547.00
2023-05-09T09:56:21.600Z,553.00
2023-05-09T09:57:21.617Z,556.00
2023-05-09T09:58:21.652Z,547.00
2023-05-09T09:59:21.778Z,535.00
2023-05-09T10:00:21.708Z,530.00
2023-05-09T10:01:21.747Z,532.00
2023-05-09T10:02:21.795Z,537.00
2023-05-09T10:03:21.832Z,538.00
2023-05-09T10:04:22.678Z,533.00
2023-05-09T10:05:21.836Z,521.00
2023-05-09T10:06:21.823Z,494.00
2023-05-09T10:07:21.924Z,488.00
2023-05-09T10:08:21.897Z,476.00
2023-05-09T10:09:21.941Z,470.00
2023-05-09T10:10:22.004Z,470.00
2023-05-09T10:11:22.022Z,471.00
2023-05-09T10:12:22.063Z,468.00
2023-05-09T10:13:22.117Z,498.00
2023-05-09T10:14:22.203Z,498.00
2023-05-09T10:15:22.156Z,493.00
2023-05-09T10:16:35.533Z,495.00
2023-05-09T10:17:23.442Z,497.00
2023-05-09T10:18:22.301Z,493.00
2023-05-09T10:19:22.168Z,482.00
2023-05-09T10:20:22.144Z,475.00
2023-05-09T10:21:22.224Z,464.00
2023-05-09T10:22:22.179Z,460.00
2023-05-09T10:23:22.124Z,456.00
2023-05-09T10:24:22.127Z,452.00
2023-05-09T10:25:22.118Z,452.00
2023-05-09T10:26:22.086Z,448.00
2023-05-09T10:27:22.131Z,442.00
2023-05-09T10:28:22.083Z,440.00
2023-05-09T10:29:22.072Z,438.00
2023-05-09T10:30:22.218Z,443.00
2023-05-09T10:31:22.177Z,451.00
2023-05-09T10:32:22.033Z,453.00
2023-05-09T10:33:22.065Z,450.00
2023-05-09T10:34:22.036Z,446.00
2023-05-09T10:35:22.165Z,443.00
2023-05-09T10:36:22.021Z,441.00
2023-05-09T10:37:22.073Z,467.00
2023-05-09T10:38:22.101Z,453.00
2023-05-09T10:39:22.186Z,531.00
2023-05-09T10:40:22.683Z,553.00
2023-05-09T10:41:22.334Z,546.00
2023-05-09T10:42:22.396Z,552.00
2023-05-09T10:43:22.404Z,556.00
2023-05-09T10:44:22.511Z,609.00
2023-05-09T10:45:22.562Z,594.00
2023-05-09T10:46:22.623Z,590.00
2023-05-09T10:47:22.755Z,602.00
2023-05-09T10:48:22.672Z,690.00
2023-05-09T10:49:22.747Z,701.00
2023-05-09T10:50:23.205Z,698.00
2023-05-09T10:51:22.860Z,692.00
2023-05-09T10:52:22.921Z,620.00
2023-05-09T10:53:22.897Z,656.00
2023-05-09T10:54:22.937Z,569.00
2023-05-09T10:55:22.987Z,568.00
2023-05-09T10:56:23.024Z,601.00
2023-05-09T10:57:23.106Z,616.00
2023-05-09T10:58:23.131Z,540.00
2023-05-09T10:59:23.179Z,490.00
2023-05-09T11:00:23.227Z,487.00
2023-05-09T11:01:23.288Z,478.00
2023-05-09T11:02:23.348Z,480.00
2023-05-09T11:03:23.531Z,483.00
2023-05-09T11:04:23.462Z,488.00
2023-05-09T11:05:23.545Z,499.00
2023-05-09T11:06:23.526Z,516.00
2023-05-09T11:07:23.598Z,567.00
2023-05-09T11:08:23.652Z,577.00
2023-05-09T11:09:23.635Z,574.00
2023-05-09T11:10:23.646Z,557.00
2023-05-09T11:11:23.726Z,504.00
2023-05-09T11:12:23.731Z,477.00
2023-05-09T11:13:23.810Z,466.00
2023-05-09T11:14:23.890Z,459.00
2023-05-09T11:15:23.870Z,451.00
2023-05-09T11:16:23.927Z,447.00
2023-05-09T11:17:23.918Z,447.00
2023-05-09T11:18:23.898Z,450.00
2023-05-09T11:19:23.998Z,452.00
2023-05-09T11:20:23.956Z,457.00
2023-05-09T11:21:23.959Z,452.00
2023-05-09T11:22:24.019Z,458.00
2023-05-09T11:23:23.972Z,482.00
2023-05-09T11:24:24.024Z,495.00
2023-05-09T11:25:25.035Z,489.00
2023-05-09T11:26:24.030Z,488.00
2023-05-09T11:27:24.075Z,494.00
2023-05-09T11:28:24.056Z,506.00
2023-05-09T11:29:24.101Z,556.00
2023-05-09T11:30:24.183Z,557.00
2023-05-09T11:31:24.859Z,561.00
2023-05-09T11:32:24.305Z,566.00
2023-05-09T11:33:24.401Z,568.00
2023-05-09T11:34:24.404Z,572.00
2023-05-09T11:35:24.477Z,577.00
2023-05-09T11:36:24.699Z,580.00
2023-05-09T11:37:24.462Z,582.00
2023-05-09T11:38:24.539Z,585.00
2023-05-09T11:39:24.494Z,588.00
2023-05-09T11:40:24.537Z,588.00
2023-05-09T11:41:24.764Z,589.00
2023-05-09T11:42:24.590Z,589.00
2023-05-09T11:43:24.605Z,590.00
2023-05-09T11:44:24.625Z,588.00
2023-05-09T11:45:24.624Z,588.00
2023-05-09T11:46:24.706Z,589.00
2023-05-09T11:47:24.680Z,592.00
2023-05-09T11:48:24.642Z,593.00
2023-05-09T11:49:24.712Z,591.00
2023-05-09T11:50:24.697Z,591.00
2023-05-09T11:51:24.783Z,589.00
2023-05-09T11:52:24.732Z,587.00
2023-05-09T11:53:24.709Z,586.00
2023-05-09T11:54:24.743Z,586.00
2023-05-09T11:55:24.717Z,585.00
2023-05-09T11:56:25.209Z,586.00
2023-05-09T11:57:24.713Z,586.00
2023-05-09T11:58:24.699Z,586.00
2023-05-09T11:59:24.713Z,584.00
2023-05-09T12:00:24.717Z,583.00
2023-05-09T12:01:24.741Z,585.00
2023-05-09T12:02:24.792Z,585.00
2023-05-09T12:03:24.919Z,587.00
2023-05-09T12:04:24.853Z,586.00
2023-05-09T12:05:24.744Z,585.00
2023-05-09T12:06:24.757Z,583.00
2023-05-09T12:07:24.854Z,584.00
2023-05-09T12:08:24.769Z,578.00
2023-05-09T12:09:24.762Z,571.00
2023-05-09T12:10:24.763Z,563.00
2023-05-09T12:11:24.785Z,562.00
2023-05-09T12:12:24.755Z,564.00
2023-05-09T12:13:24.808Z,559.00
2023-05-09T12:14:24.753Z,551.00
2023-05-09T12:15:24.758Z,545.00
2023-05-09T12:16:24.810Z,540.00
2023-05-09T12:17:24.767Z,542.00
2023-05-09T12:18:24.736Z,548.00
2023-05-09T12:19:24.728Z,551.00
2023-05-09T12:20:24.724Z,548.00
2023-05-09T12:21:24.717Z,544.00
2023-05-09T12:22:24.746Z,547.00
2023-05-09T12:23:24.817Z,542.00
2023-05-09T12:24:24.715Z,541.00
2023-05-09T12:25:24.743Z,545.00
2023-05-09T12:26:24.771Z,572.00
2023-05-09T12:27:24.733Z,603.00